Sant Just Desvern, Spain
Current Conditions -  °F | °C
As of 8:00 AM on Sunday 26 Oct 2014 (Local Time) from LEBL Reporting Station
Few Clouds Few Clouds  
Wind Chill: 61°   Ceiling: Unl
Heat Index: 61°   Visibility: 6mi
Dew Point: 54°   Wind: 9mph
Humidity: 77%   Direction: 330°NNW
Pressure: 30.15"   Gusts: NA
Location:  41.39°N, 2.08°E
Report Text: LEBL 260600Z 33008KT 9999 FEW020 16/12 Q1021 NOSIG
Loading
Personal Weather Stations






























Interactive Weather Map New forecast layout! Learn more

10-Day Weather Forecast

Advertisements
Track Severe Weather on mobile